sensor_id;sensor_type;location;lat;lon;timestamp;P1;durP1;ratioP1;P2;durP2;ratioP2
85461;SDS011;75865;42.672;23.360;2024-03-17T00:02:14;12.07;;;7.03;;
85461;SDS011;75865;42.672;23.360;2024-03-17T00:04:40;14.82;;;7.28;;
85461;SDS011;75865;42.672;23.360;2024-03-17T00:07:08;11.70;;;7.43;;
85461;SDS011;75865;42.672;23.360;2024-03-17T00:09:34;15.55;;;8.52;;
85461;SDS011;75865;42.672;23.360;2024-03-17T00:11:59;13.98;;;7.22;;
85461;SDS011;75865;42.672;23.360;2024-03-17T00:14:25;16.40;;;7.68;;
85461;SDS011;75865;42.672;23.360;2024-03-17T00:16:53;12.35;;;7.22;;
85461;SDS011;75865;42.672;23.360;2024-03-17T00:19:19;16.75;;;8.88;;
85461;SDS011;75865;42.672;23.360;2024-03-17T00:21:47;18.73;;;9.50;;
85461;SDS011;75865;42.672;23.360;2024-03-17T00:24:16;13.75;;;8.90;;
85461;SDS011;75865;42.672;23.360;2024-03-17T00:26:42;15.18;;;8.70;;
85461;SDS011;75865;42.672;23.360;2024-03-17T00:29:08;16.75;;;8.60;;
85461;SDS011;75865;42.672;23.360;2024-03-17T00:31:34;19.13;;;9.30;;
85461;SDS011;75865;42.672;23.360;2024-03-17T00:33:59;15.90;;;9.18;;
85461;SDS011;75865;42.672;23.360;2024-03-17T00:36:25;19.40;;;10.57;;
85461;SDS011;75865;42.672;23.360;2024-03-17T00:38:51;21.38;;;9.80;;
85461;SDS011;75865;42.672;23.360;2024-03-17T00:41:19;20.30;;;9.40;;
85461;SDS011;75865;42.672;23.360;2024-03-17T00:43:47;19.92;;;11.05;;
85461;SDS011;75865;42.672;23.360;2024-03-17T00:46:12;19.70;;;10.70;;
85461;SDS011;75865;42.672;23.360;2024-03-17T00:48:38;24.85;;;11.05;;
85461;SDS011;75865;42.672;23.360;2024-03-17T00:51:04;17.98;;;11.45;;
85461;SDS011;75865;42.672;23.360;2024-03-17T00:53:30;17.65;;;10.23;;
85461;SDS011;75865;42.672;23.360;2024-03-17T00:55:56;20.00;;;10.98;;
85461;SDS011;75865;42.672;23.360;2024-03-17T00:58:26;22.48;;;10.50;;
85461;SDS011;75865;42.672;23.360;2024-03-17T01:00:52;17.40;;;8.90;;
85461;SDS011;75865;42.672;23.360;2024-03-17T01:03:18;15.82;;;8.82;;
85461;SDS011;75865;42.672;23.360;2024-03-17T01:05:44;23.70;;;10.18;;
85461;SDS011;75865;42.672;23.360;2024-03-17T01:08:13;19.38;;;10.00;;
85461;SDS011;75865;42.672;23.360;2024-03-17T01:10:42;24.83;;;11.82;;
85461;SDS011;75865;42.672;23.360;2024-03-17T01:13:08;19.35;;;10.13;;
85461;SDS011;75865;42.672;23.360;2024-03-17T01:15:35;23.00;;;11.45;;
85461;SDS011;75865;42.672;23.360;2024-03-17T01:18:05;19.20;;;10.63;;
85461;SDS011;75865;42.672;23.360;2024-03-17T01:20:32;24.77;;;11.77;;
85461;SDS011;75865;42.672;23.360;2024-03-17T01:23:00;21.77;;;12.35;;
85461;SDS011;75865;42.672;23.360;2024-03-17T01:25:25;20.23;;;11.55;;
85461;SDS011;75865;42.672;23.360;2024-03-17T01:27:53;21.50;;;11.82;;
85461;SDS011;75865;42.672;23.360;2024-03-17T01:30:18;21.17;;;11.30;;
85461;SDS011;75865;42.672;23.360;2024-03-17T01:32:45;20.17;;;11.10;;
85461;SDS011;75865;42.672;23.360;2024-03-17T01:35:11;24.65;;;12.02;;
85461;SDS011;75865;42.672;23.360;2024-03-17T01:37:37;20.77;;;11.23;;
85461;SDS011;75865;42.672;23.360;2024-03-17T01:40:04;21.13;;;12.10;;
85461;SDS011;75865;42.672;23.360;2024-03-17T01:42:33;23.23;;;12.00;;
85461;SDS011;75865;42.672;23.360;2024-03-17T01:44:59;24.50;;;12.20;;
85461;SDS011;75865;42.672;23.360;2024-03-17T01:47:25;23.60;;;12.10;;
85461;SDS011;75865;42.672;23.360;2024-03-17T01:49:51;19.80;;;11.70;;
85461;SDS011;75865;42.672;23.360;2024-03-17T01:52:17;25.08;;;13.60;;
85461;SDS011;75865;42.672;23.360;2024-03-17T01:54:44;20.63;;;12.20;;
85461;SDS011;75865;42.672;23.360;2024-03-17T01:57:11;22.17;;;12.02;;
85461;SDS011;75865;42.672;23.360;2024-03-17T01:59:38;20.67;;;12.02;;
85461;SDS011;75865;42.672;23.360;2024-03-17T02:02:06;22.08;;;12.02;;
85461;SDS011;75865;42.672;23.360;2024-03-17T02:04:32;21.55;;;12.10;;
85461;SDS011;75865;42.672;23.360;2024-03-17T02:06:58;20.00;;;12.13;;
85461;SDS011;75865;42.672;23.360;2024-03-17T02:09:24;22.27;;;12.35;;
85461;SDS011;75865;42.672;23.360;2024-03-17T02:11:50;22.42;;;13.32;;
85461;SDS011;75865;42.672;23.360;2024-03-17T02:14:16;20.77;;;12.38;;
85461;SDS011;75865;42.672;23.360;2024-03-17T02:16:42;21.92;;;13.15;;
85461;SDS011;75865;42.672;23.360;2024-03-17T02:19:09;22.75;;;12.18;;
85461;SDS011;75865;42.672;23.360;2024-03-17T02:21:35;23.27;;;13.07;;
85461;SDS011;75865;42.672;23.360;2024-03-17T02:24:02;24.17;;;12.82;;
85461;SDS011;75865;42.672;23.360;2024-03-17T02:26:28;20.40;;;12.05;;
85461;SDS011;75865;42.672;23.360;2024-03-17T02:28:54;20.98;;;12.40;;
85461;SDS011;75865;42.672;23.360;2024-03-17T02:31:20;23.08;;;12.27;;
85461;SDS011;75865;42.672;23.360;2024-03-17T02:33:47;20.48;;;11.93;;
85461;SDS011;75865;42.672;23.360;2024-03-17T02:36:13;20.75;;;12.25;;
85461;SDS011;75865;42.672;23.360;2024-03-17T02:38:39;22.13;;;11.80;;
85461;SDS011;75865;42.672;23.360;2024-03-17T02:41:24;22.08;;;11.82;;
85461;SDS011;75865;42.672;23.360;2024-03-17T02:43:50;20.92;;;12.07;;
85461;SDS011;75865;42.672;23.360;2024-03-17T02:46:16;20.80;;;11.55;;
85461;SDS011;75865;42.672;23.360;2024-03-17T02:48:44;23.48;;;12.15;;
85461;SDS011;75865;42.672;23.360;2024-03-17T02:51:14;19.48;;;12.50;;
85461;SDS011;75865;42.672;23.360;2024-03-17T02:53:41;22.63;;;11.93;;
85461;SDS011;75865;42.672;23.360;2024-03-17T02:56:08;20.73;;;12.27;;
85461;SDS011;75865;42.672;23.360;2024-03-17T02:58:35;24.13;;;11.82;;
85461;SDS011;75865;42.672;23.360;2024-03-17T03:01:02;23.02;;;12.40;;
85461;SDS011;75865;42.672;23.360;2024-03-17T03:03:33;22.27;;;12.80;;
85461;SDS011;75865;42.672;23.360;2024-03-17T03:05:59;22.90;;;12.05;;
85461;SDS011;75865;42.672;23.360;2024-03-17T03:08:40;19.98;;;12.00;;
85461;SDS011;75865;42.672;23.360;2024-03-17T03:11:07;22.30;;;11.68;;
85461;SDS011;75865;42.672;23.360;2024-03-17T03:13:37;25.73;;;12.77;;
85461;SDS011;75865;42.672;23.360;2024-03-17T03:16:08;23.67;;;12.10;;
85461;SDS011;75865;42.672;23.360;2024-03-17T03:18:39;20.05;;;11.18;;
85461;SDS011;75865;42.672;23.360;2024-03-17T03:21:06;21.58;;;11.60;;
85461;SDS011;75865;42.672;23.360;2024-03-17T03:23:33;20.95;;;11.68;;
85461;SDS011;75865;42.672;23.360;2024-03-17T03:25:59;20.75;;;12.48;;
85461;SDS011;75865;42.672;23.360;2024-03-17T03:28:29;20.80;;;11.63;;
85461;SDS011;75865;42.672;23.360;2024-03-17T03:30:56;22.90;;;11.88;;
85461;SDS011;75865;42.672;23.360;2024-03-17T03:33:22;18.50;;;11.18;;
85461;SDS011;75865;42.672;23.360;2024-03-17T03:35:48;22.65;;;12.25;;
85461;SDS011;75865;42.672;23.360;2024-03-17T03:38:14;19.83;;;12.43;;
85461;SDS011;75865;42.672;23.360;2024-03-17T03:40:40;25.35;;;12.60;;
85461;SDS011;75865;42.672;23.360;2024-03-17T03:43:07;20.38;;;12.32;;
85461;SDS011;75865;42.672;23.360;2024-03-17T03:45:34;22.70;;;12.50;;
85461;SDS011;75865;42.672;23.360;2024-03-17T03:48:00;21.38;;;12.27;;
85461;SDS011;75865;42.672;23.360;2024-03-17T03:50:28;19.40;;;11.60;;
85461;SDS011;75865;42.672;23.360;2024-03-17T03:52:54;17.17;;;10.93;;
85461;SDS011;75865;42.672;23.360;2024-03-17T03:55:20;20.80;;;12.00;;
85461;SDS011;75865;42.672;23.360;2024-03-17T03:57:46;18.52;;;11.38;;
85461;SDS011;75865;42.672;23.360;2024-03-17T04:00:16;32.47;;;12.38;;
85461;SDS011;75865;42.672;23.360;2024-03-17T04:02:47;28.13;;;13.38;;
85461;SDS011;75865;42.672;23.360;2024-03-17T04:05:20;22.50;;;12.98;;
85461;SDS011;75865;42.672;23.360;2024-03-17T04:07:46;22.15;;;11.90;;
85461;SDS011;75865;42.672;23.360;2024-03-17T04:10:14;23.10;;;11.93;;
85461;SDS011;75865;42.672;23.360;2024-03-17T04:12:41;24.52;;;12.40;;
85461;SDS011;75865;42.672;23.360;2024-03-17T04:15:07;23.80;;;13.60;;
85461;SDS011;75865;42.672;23.360;2024-03-17T04:17:35;21.20;;;12.25;;
85461;SDS011;75865;42.672;23.360;2024-03-17T04:20:02;20.52;;;11.55;;
85461;SDS011;75865;42.672;23.360;2024-03-17T04:22:30;20.85;;;11.32;;
85461;SDS011;75865;42.672;23.360;2024-03-17T04:24:57;26.30;;;12.10;;
85461;SDS011;75865;42.672;23.360;2024-03-17T04:27:23;25.70;;;13.02;;
85461;SDS011;75865;42.672;23.360;2024-03-17T04:29:49;26.35;;;13.45;;
85461;SDS011;75865;42.672;23.360;2024-03-17T04:32:19;22.25;;;12.38;;
85461;SDS011;75865;42.672;23.360;2024-03-17T04:34:45;24.17;;;12.98;;
85461;SDS011;75865;42.672;23.360;2024-03-17T04:37:12;27.35;;;12.98;;
85461;SDS011;75865;42.672;23.360;2024-03-17T04:39:41;22.58;;;12.35;;
85461;SDS011;75865;42.672;23.360;2024-03-17T04:42:11;22.00;;;13.38;;
85461;SDS011;75865;42.672;23.360;2024-03-17T04:44:41;25.75;;;13.93;;
85461;SDS011;75865;42.672;23.360;2024-03-17T04:47:08;31.10;;;14.88;;
85461;SDS011;75865;42.672;23.360;2024-03-17T04:49:38;26.60;;;13.27;;
85461;SDS011;75865;42.672;23.360;2024-03-17T04:52:05;24.70;;;13.98;;
85461;SDS011;75865;42.672;23.360;2024-03-17T04:54:32;27.67;;;14.25;;
85461;SDS011;75865;42.672;23.360;2024-03-17T04:56:58;29.52;;;15.82;;
85461;SDS011;75865;42.672;23.360;2024-03-17T04:59:24;29.05;;;15.77;;
85461;SDS011;75865;42.672;23.360;2024-03-17T05:01:50;34.25;;;14.52;;
85461;SDS011;75865;42.672;23.360;2024-03-17T05:04:17;29.35;;;15.10;;
85461;SDS011;75865;42.672;23.360;2024-03-17T05:06:43;30.60;;;16.17;;
85461;SDS011;75865;42.672;23.360;2024-03-17T05:09:14;26.52;;;13.55;;
85461;SDS011;75865;42.672;23.360;2024-03-17T05:11:43;31.13;;;15.10;;
85461;SDS011;75865;42.672;23.360;2024-03-17T05:14:09;32.17;;;14.93;;
85461;SDS011;75865;42.672;23.360;2024-03-17T05:16:35;30.73;;;14.93;;
85461;SDS011;75865;42.672;23.360;2024-03-17T05:19:01;33.90;;;17.60;;
85461;SDS011;75865;42.672;23.360;2024-03-17T05:21:26;33.42;;;17.75;;
85461;SDS011;75865;42.672;23.360;2024-03-17T05:23:55;35.25;;;16.77;;
85461;SDS011;75865;42.672;23.360;2024-03-17T05:26:23;28.23;;;16.35;;
85461;SDS011;75865;42.672;23.360;2024-03-17T05:28:49;25.63;;;14.43;;
85461;SDS011;75865;42.672;23.360;2024-03-17T05:31:15;22.83;;;12.93;;
85461;SDS011;75865;42.672;23.360;2024-03-17T05:33:43;32.25;;;15.80;;
85461;SDS011;75865;42.672;23.360;2024-03-17T05:36:09;26.40;;;14.68;;
85461;SDS011;75865;42.672;23.360;2024-03-17T05:38:35;27.88;;;14.75;;
85461;SDS011;75865;42.672;23.360;2024-03-17T05:41:05;37.03;;;15.95;;
85461;SDS011;75865;42.672;23.360;2024-03-17T05:43:33;26.50;;;15.43;;
85461;SDS011;75865;42.672;23.360;2024-03-17T05:46:04;28.75;;;14.80;;
85461;SDS011;75865;42.672;23.360;2024-03-17T05:48:34;23.73;;;14.18;;
85461;SDS011;75865;42.672;23.360;2024-03-17T05:53:30;22.52;;;13.00;;
85461;SDS011;75865;42.672;23.360;2024-03-17T05:56:00;23.00;;;13.07;;
85461;SDS011;75865;42.672;23.360;2024-03-17T05:58:27;24.35;;;13.50;;
85461;SDS011;75865;42.672;23.360;2024-03-17T06:00:53;28.48;;;14.30;;
85461;SDS011;75865;42.672;23.360;2024-03-17T06:03:20;24.23;;;14.95;;
85461;SDS011;75865;42.672;23.360;2024-03-17T06:05:47;24.13;;;13.13;;
85461;SDS011;75865;42.672;23.360;2024-03-17T06:08:13;29.55;;;16.50;;
85461;SDS011;75865;42.672;23.360;2024-03-17T06:10:46;26.95;;;14.05;;
85461;SDS011;75865;42.672;23.360;2024-03-17T06:13:13;29.27;;;15.35;;
85461;SDS011;75865;42.672;23.360;2024-03-17T06:15:42;25.95;;;14.63;;
85461;SDS011;75865;42.672;23.360;2024-03-17T06:18:14;24.65;;;13.20;;
85461;SDS011;75865;42.672;23.360;2024-03-17T06:20:43;25.90;;;15.00;;
85461;SDS011;75865;42.672;23.360;2024-03-17T06:23:14;25.73;;;13.32;;
85461;SDS011;75865;42.672;23.360;2024-03-17T06:28:11;23.33;;;12.93;;
85461;SDS011;75865;42.672;23.360;2024-03-17T06:30:41;21.42;;;12.60;;
85461;SDS011;75865;42.672;23.360;2024-03-17T06:33:08;27.73;;;14.30;;
85461;SDS011;75865;42.672;23.360;2024-03-17T06:35:36;28.00;;;15.50;;
85461;SDS011;75865;42.672;23.360;2024-03-17T06:38:02;24.90;;;13.63;;
85461;SDS011;75865;42.672;23.360;2024-03-17T06:40:28;28.75;;;14.68;;
85461;SDS011;75865;42.672;23.360;2024-03-17T06:42:54;25.75;;;14.27;;
85461;SDS011;75865;42.672;23.360;2024-03-17T06:45:20;26.05;;;16.17;;
85461;SDS011;75865;42.672;23.360;2024-03-17T06:47:46;28.70;;;16.63;;
85461;SDS011;75865;42.672;23.360;2024-03-17T06:50:12;31.33;;;18.77;;
85461;SDS011;75865;42.672;23.360;2024-03-17T06:52:38;32.00;;;19.13;;
85461;SDS011;75865;42.672;23.360;2024-03-17T06:55:04;30.08;;;18.67;;
85461;SDS011;75865;42.672;23.360;2024-03-17T06:57:32;36.03;;;19.13;;
85461;SDS011;75865;42.672;23.360;2024-03-17T06:59:59;29.65;;;18.73;;
85461;SDS011;75865;42.672;23.360;2024-03-17T07:02:25;29.13;;;17.42;;
85461;SDS011;75865;42.672;23.360;2024-03-17T07:04:51;31.63;;;16.73;;
85461;SDS011;75865;42.672;23.360;2024-03-17T07:07:17;32.63;;;16.50;;
85461;SDS011;75865;42.672;23.360;2024-03-17T07:09:43;27.55;;;16.90;;
85461;SDS011;75865;42.672;23.360;2024-03-17T07:12:09;24.88;;;15.63;;
85461;SDS011;75865;42.672;23.360;2024-03-17T07:14:36;29.20;;;14.48;;
85461;SDS011;75865;42.672;23.360;2024-03-17T07:17:03;22.00;;;14.73;;
85461;SDS011;75865;42.672;23.360;2024-03-17T07:19:29;33.33;;;15.75;;
85461;SDS011;75865;42.672;23.360;2024-03-17T07:21:56;26.00;;;14.98;;
85461;SDS011;75865;42.672;23.360;2024-03-17T07:24:22;24.55;;;14.48;;
85461;SDS011;75865;42.672;23.360;2024-03-17T07:26:49;25.40;;;13.40;;
85461;SDS011;75865;42.672;23.360;2024-03-17T07:29:15;28.17;;;15.38;;
85461;SDS011;75865;42.672;23.360;2024-03-17T07:31:41;26.55;;;14.60;;
85461;SDS011;75865;42.672;23.360;2024-03-17T07:34:08;22.52;;;12.80;;
85461;SDS011;75865;42.672;23.360;2024-03-17T07:36:34;22.85;;;12.77;;
85461;SDS011;75865;42.672;23.360;2024-03-17T07:38:59;23.63;;;11.82;;
85461;SDS011;75865;42.672;23.360;2024-03-17T07:41:25;22.65;;;12.32;;
85461;SDS011;75865;42.672;23.360;2024-03-17T07:43:51;20.90;;;11.85;;
85461;SDS011;75865;42.672;23.360;2024-03-17T07:46:17;19.65;;;11.15;;
85461;SDS011;75865;42.672;23.360;2024-03-17T07:48:43;16.35;;;10.70;;
85461;SDS011;75865;42.672;23.360;2024-03-17T07:51:11;16.75;;;10.52;;
85461;SDS011;75865;42.672;23.360;2024-03-17T07:53:38;16.45;;;9.68;;
85461;SDS011;75865;42.672;23.360;2024-03-17T07:56:10;17.45;;;10.10;;
85461;SDS011;75865;42.672;23.360;2024-03-17T07:58:44;16.65;;;10.20;;
85461;SDS011;75865;42.672;23.360;2024-03-17T08:03:38;18.27;;;9.65;;
85461;SDS011;75865;42.672;23.360;2024-03-17T08:06:05;19.00;;;9.43;;
85461;SDS011;75865;42.672;23.360;2024-03-17T08:08:32;14.05;;;8.18;;
85461;SDS011;75865;42.672;23.360;2024-03-17T08:10:59;20.17;;;8.35;;
85461;SDS011;75865;42.672;23.360;2024-03-17T08:13:24;14.55;;;8.05;;
85461;SDS011;75865;42.672;23.360;2024-03-17T08:15:57;12.75;;;7.78;;
85461;SDS011;75865;42.672;23.360;2024-03-17T08:18:25;14.30;;;7.93;;
85461;SDS011;75865;42.672;23.360;2024-03-17T08:20:52;13.57;;;9.23;;
85461;SDS011;75865;42.672;23.360;2024-03-17T08:23:19;11.88;;;7.50;;
85461;SDS011;75865;42.672;23.360;2024-03-17T08:25:52;14.40;;;7.95;;
85461;SDS011;75865;42.672;23.360;2024-03-17T08:28:19;12.60;;;7.28;;
85461;SDS011;75865;42.672;23.360;2024-03-17T08:30:59;12.60;;;6.82;;
85461;SDS011;75865;42.672;23.360;2024-03-17T08:33:26;13.73;;;7.55;;
85461;SDS011;75865;42.672;23.360;2024-03-17T08:35:56;16.63;;;8.60;;
85461;SDS011;75865;42.672;23.360;2024-03-17T08:38:23;15.43;;;8.20;;
85461;SDS011;75865;42.672;23.360;2024-03-17T08:40:50;12.07;;;7.35;;
85461;SDS011;75865;42.672;23.360;2024-03-17T08:43:20;10.63;;;7.10;;
85461;SDS011;75865;42.672;23.360;2024-03-17T08:46:03;9.90;;;6.80;;
85461;SDS011;75865;42.672;23.360;2024-03-17T08:48:32;11.40;;;7.45;;
85461;SDS011;75865;42.672;23.360;2024-03-17T08:50:59;11.38;;;6.72;;
85461;SDS011;75865;42.672;23.360;2024-03-17T08:53:26;10.90;;;6.60;;
85461;SDS011;75865;42.672;23.360;2024-03-17T08:55:53;10.98;;;7.13;;
85461;SDS011;75865;42.672;23.360;2024-03-17T08:58:20;16.48;;;7.78;;
85461;SDS011;75865;42.672;23.360;2024-03-17T09:00:46;10.88;;;7.18;;
85461;SDS011;75865;42.672;23.360;2024-03-17T09:03:12;10.02;;;7.07;;
85461;SDS011;75865;42.672;23.360;2024-03-17T09:05:42;11.50;;;6.97;;
85461;SDS011;75865;42.672;23.360;2024-03-17T09:08:18;12.75;;;8.65;;
85461;SDS011;75865;42.672;23.360;2024-03-17T09:10:46;12.90;;;7.70;;
85461;SDS011;75865;42.672;23.360;2024-03-17T09:13:16;11.07;;;6.68;;
85461;SDS011;75865;42.672;23.360;2024-03-17T09:15:50;9.55;;;6.30;;
85461;SDS011;75865;42.672;23.360;2024-03-17T09:18:23;12.05;;;7.88;;
85461;SDS011;75865;42.672;23.360;2024-03-17T09:23:24;11.00;;;5.82;;
85461;SDS011;75865;42.672;23.360;2024-03-17T09:25:58;7.82;;;6.68;;
85461;SDS011;75865;42.672;23.360;2024-03-17T09:28:26;10.27;;;6.20;;
85461;SDS011;75865;42.672;23.360;2024-03-17T09:30:53;11.45;;;6.07;;
85461;SDS011;75865;42.672;23.360;2024-03-17T09:33:20;9.68;;;6.75;;
85461;SDS011;75865;42.672;23.360;2024-03-17T09:38:23;11.63;;;7.32;;
85461;SDS011;75865;42.672;23.360;2024-03-17T09:40:49;14.02;;;8.20;;
85461;SDS011;75865;42.672;23.360;2024-03-17T09:43:21;14.32;;;7.97;;
85461;SDS011;75865;42.672;23.360;2024-03-17T09:45:48;9.45;;;6.20;;
85461;SDS011;75865;42.672;23.360;2024-03-17T09:48:16;10.93;;;6.90;;
85461;SDS011;75865;42.672;23.360;2024-03-17T09:50:52;9.73;;;5.90;;
85461;SDS011;75865;42.672;23.360;2024-03-17T09:53:23;10.15;;;5.90;;
85461;SDS011;75865;42.672;23.360;2024-03-17T09:55:50;8.75;;;5.72;;
85461;SDS011;75865;42.672;23.360;2024-03-17T09:58:18;9.82;;;6.22;;
85461;SDS011;75865;42.672;23.360;2024-03-17T10:00:45;8.48;;;4.95;;
85461;SDS011;75865;42.672;23.360;2024-03-17T10:03:12;7.05;;;4.75;;
85461;SDS011;75865;42.672;23.360;2024-03-17T10:06:01;9.57;;;5.78;;
85461;SDS011;75865;42.672;23.360;2024-03-17T10:08:27;9.13;;;5.78;;
85461;SDS011;75865;42.672;23.360;2024-03-17T10:10:53;6.53;;;4.18;;
85461;SDS011;75865;42.672;23.360;2024-03-17T10:13:19;7.20;;;4.63;;
85461;SDS011;75865;42.672;23.360;2024-03-17T10:15:48;7.93;;;4.55;;
85461;SDS011;75865;42.672;23.360;2024-03-17T10:18:21;6.63;;;3.72;;
85461;SDS011;75865;42.672;23.360;2024-03-17T10:20:48;8.73;;;5.43;;
85461;SDS011;75865;42.672;23.360;2024-03-17T10:23:22;7.28;;;3.65;;
85461;SDS011;75865;42.672;23.360;2024-03-17T10:25:48;5.10;;;3.95;;
85461;SDS011;75865;42.672;23.360;2024-03-17T10:28:15;7.97;;;4.40;;
85461;SDS011;75865;42.672;23.360;2024-03-17T10:30:42;5.65;;;4.28;;
85461;SDS011;75865;42.672;23.360;2024-03-17T10:33:23;5.20;;;4.10;;
85461;SDS011;75865;42.672;23.360;2024-03-17T10:36:01;5.05;;;3.80;;
85461;SDS011;75865;42.672;23.360;2024-03-17T10:40:53;5.78;;;3.92;;
85461;SDS011;75865;42.672;23.360;2024-03-17T10:43:19;5.70;;;3.63;;
85461;SDS011;75865;42.672;23.360;2024-03-17T10:45:53;4.68;;;3.90;;
85461;SDS011;75865;42.672;23.360;2024-03-17T10:48:22;4.28;;;3.25;;
85461;SDS011;75865;42.672;23.360;2024-03-17T10:50:57;4.45;;;3.22;;
85461;SDS011;75865;42.672;23.360;2024-03-17T10:53:26;3.88;;;2.63;;
85461;SDS011;75865;42.672;23.360;2024-03-17T10:56:05;3.40;;;2.38;;
85461;SDS011;75865;42.672;23.360;2024-03-17T10:58:36;2.70;;;1.83;;
85461;SDS011;75865;42.672;23.360;2024-03-17T11:01:14;3.13;;;2.30;;
85461;SDS011;75865;42.672;23.360;2024-03-17T11:03:40;2.45;;;2.03;;
85461;SDS011;75865;42.672;23.360;2024-03-17T11:06:08;3.70;;;2.30;;
85461;SDS011;75865;42.672;23.360;2024-03-17T11:08:35;3.38;;;2.40;;
85461;SDS011;75865;42.672;23.360;2024-03-17T11:11:02;3.30;;;2.30;;
85461;SDS011;75865;42.672;23.360;2024-03-17T11:13:29;7.43;;;5.18;;
85461;SDS011;75865;42.672;23.360;2024-03-17T11:15:57;4.82;;;3.50;;
85461;SDS011;75865;42.672;23.360;2024-03-17T11:23:32;5.05;;;3.20;;
85461;SDS011;75865;42.672;23.360;2024-03-17T11:25:58;3.78;;;2.75;;
85461;SDS011;75865;42.672;23.360;2024-03-17T11:33:53;5.03;;;2.97;;
85461;SDS011;75865;42.672;23.360;2024-03-17T11:41:49;6.55;;;4.28;;
85461;SDS011;75865;42.672;23.360;2024-03-17T11:51:53;3.85;;;3.25;;
85461;SDS011;75865;42.672;23.360;2024-03-17T11:54:23;3.35;;;2.80;;
85461;SDS011;75865;42.672;23.360;2024-03-17T11:56:53;3.65;;;3.03;;
85461;SDS011;75865;42.672;23.360;2024-03-17T11:59:20;4.55;;;3.13;;
85461;SDS011;75865;42.672;23.360;2024-03-17T12:01:48;4.10;;;3.20;;
85461;SDS011;75865;42.672;23.360;2024-03-17T12:04:15;6.32;;;2.92;;
85461;SDS011;75865;42.672;23.360;2024-03-17T12:06:47;4.85;;;3.40;;
85461;SDS011;75865;42.672;23.360;2024-03-17T12:14:16;3.60;;;2.95;;
85461;SDS011;75865;42.672;23.360;2024-03-17T12:16:48;3.90;;;3.15;;
85461;SDS011;75865;42.672;23.360;2024-03-17T12:19:15;4.47;;;3.10;;
85461;SDS011;75865;42.672;23.360;2024-03-17T12:21:44;3.67;;;3.20;;
85461;SDS011;75865;42.672;23.360;2024-03-17T12:24:16;6.78;;;3.40;;
85461;SDS011;75865;42.672;23.360;2024-03-17T12:26:44;4.15;;;3.53;;
85461;SDS011;75865;42.672;23.360;2024-03-17T12:29:26;4.25;;;3.10;;
85461;SDS011;75865;42.672;23.360;2024-03-17T12:31:56;4.20;;;2.90;;
85461;SDS011;75865;42.672;23.360;2024-03-17T12:34:26;5.32;;;2.90;;
85461;SDS011;75865;42.672;23.360;2024-03-17T12:36:53;3.85;;;2.92;;
85461;SDS011;75865;42.672;23.360;2024-03-17T12:39:27;4.00;;;3.10;;
85461;SDS011;75865;42.672;23.360;2024-03-17T12:44:38;4.57;;;3.30;;
85461;SDS011;75865;42.672;23.360;2024-03-17T12:47:17;3.92;;;3.10;;
85461;SDS011;75865;42.672;23.360;2024-03-17T12:49:45;3.58;;;3.25;;
85461;SDS011;75865;42.672;23.360;2024-03-17T12:52:20;3.95;;;3.50;;
85461;SDS011;75865;42.672;23.360;2024-03-17T12:55:00;3.50;;;3.13;;
85461;SDS011;75865;42.672;23.360;2024-03-17T12:57:46;4.75;;;3.63;;
85461;SDS011;75865;42.672;23.360;2024-03-17T13:00:32;5.28;;;4.07;;
85461;SDS011;75865;42.672;23.360;2024-03-17T13:03:02;4.60;;;3.60;;
85461;SDS011;75865;42.672;23.360;2024-03-17T13:05:30;5.45;;;4.07;;
85461;SDS011;75865;42.672;23.360;2024-03-17T13:07:57;3.97;;;3.58;;
85461;SDS011;75865;42.672;23.360;2024-03-17T13:10:24;4.05;;;3.60;;
85461;SDS011;75865;42.672;23.360;2024-03-17T13:13:07;4.80;;;3.97;;
85461;SDS011;75865;42.672;23.360;2024-03-17T13:15:34;5.90;;;4.30;;
85461;SDS011;75865;42.672;23.360;2024-03-17T13:18:04;4.18;;;3.60;;
85461;SDS011;75865;42.672;23.360;2024-03-17T13:20:31;4.82;;;3.65;;
85461;SDS011;75865;42.672;23.360;2024-03-17T13:22:57;4.80;;;3.72;;
85461;SDS011;75865;42.672;23.360;2024-03-17T13:25:25;5.93;;;4.38;;
85461;SDS011;75865;42.672;23.360;2024-03-17T13:27:55;5.47;;;4.20;;
85461;SDS011;75865;42.672;23.360;2024-03-17T13:30:22;5.85;;;4.05;;
85461;SDS011;75865;42.672;23.360;2024-03-17T13:32:52;6.95;;;4.80;;
85461;SDS011;75865;42.672;23.360;2024-03-17T13:35:26;6.78;;;4.78;;
85461;SDS011;75865;42.672;23.360;2024-03-17T13:37:54;8.60;;;4.65;;
85461;SDS011;75865;42.672;23.360;2024-03-17T13:40:22;6.65;;;4.63;;
85461;SDS011;75865;42.672;23.360;2024-03-17T13:42:49;7.75;;;5.10;;
85461;SDS011;75865;42.672;23.360;2024-03-17T13:45:16;6.55;;;5.00;;
85461;SDS011;75865;42.672;23.360;2024-03-17T13:47:47;7.82;;;4.57;;
85461;SDS011;75865;42.672;23.360;2024-03-17T13:50:17;6.07;;;4.45;;
85461;SDS011;75865;42.672;23.360;2024-03-17T13:52:43;6.97;;;4.15;;
85461;SDS011;75865;42.672;23.360;2024-03-17T13:55:22;6.72;;;4.50;;
85461;SDS011;75865;42.672;23.360;2024-03-17T13:57:49;7.03;;;4.47;;
85461;SDS011;75865;42.672;23.360;2024-03-17T14:00:17;10.55;;;6.03;;
85461;SDS011;75865;42.672;23.360;2024-03-17T14:02:49;7.63;;;5.30;;
85461;SDS011;75865;42.672;23.360;2024-03-17T14:05:17;5.53;;;4.57;;
85461;SDS011;75865;42.672;23.360;2024-03-17T14:07:44;9.13;;;6.05;;
85461;SDS011;75865;42.672;23.360;2024-03-17T14:10:11;7.72;;;4.82;;
85461;SDS011;75865;42.672;23.360;2024-03-17T14:12:39;6.82;;;5.00;;
85461;SDS011;75865;42.672;23.360;2024-03-17T14:15:05;6.68;;;5.10;;
85461;SDS011;75865;42.672;23.360;2024-03-17T14:17:32;10.45;;;5.38;;
85461;SDS011;75865;42.672;23.360;2024-03-17T14:19:58;8.40;;;5.57;;
85461;SDS011;75865;42.672;23.360;2024-03-17T14:22:25;5.93;;;4.85;;
85461;SDS011;75865;42.672;23.360;2024-03-17T14:24:51;6.35;;;4.78;;
85461;SDS011;75865;42.672;23.360;2024-03-17T14:27:17;7.43;;;5.53;;
85461;SDS011;75865;42.672;23.360;2024-03-17T14:29:43;7.90;;;4.88;;
85461;SDS011;75865;42.672;23.360;2024-03-17T14:32:09;8.80;;;4.90;;
85461;SDS011;75865;42.672;23.360;2024-03-17T14:34:35;7.45;;;4.97;;
85461;SDS011;75865;42.672;23.360;2024-03-17T14:37:03;9.10;;;5.53;;
85461;SDS011;75865;42.672;23.360;2024-03-17T14:39:29;7.95;;;4.65;;
85461;SDS011;75865;42.672;23.360;2024-03-17T14:41:55;9.23;;;5.03;;
85461;SDS011;75865;42.672;23.360;2024-03-17T14:44:22;5.95;;;4.22;;
85461;SDS011;75865;42.672;23.360;2024-03-17T14:46:48;6.28;;;4.78;;
85461;SDS011;75865;42.672;23.360;2024-03-17T14:49:17;6.45;;;4.97;;
85461;SDS011;75865;42.672;23.360;2024-03-17T14:51:44;6.93;;;4.63;;
85461;SDS011;75865;42.672;23.360;2024-03-17T14:54:10;10.10;;;5.18;;
85461;SDS011;75865;42.672;23.360;2024-03-17T14:56:36;8.38;;;4.93;;
85461;SDS011;75865;42.672;23.360;2024-03-17T14:59:03;6.63;;;4.22;;
85461;SDS011;75865;42.672;23.360;2024-03-17T15:01:29;8.43;;;4.90;;
85461;SDS011;75865;42.672;23.360;2024-03-17T15:03:56;6.65;;;4.63;;
85461;SDS011;75865;42.672;23.360;2024-03-17T15:06:22;6.78;;;5.10;;
85461;SDS011;75865;42.672;23.360;2024-03-17T15:08:47;6.47;;;4.53;;
85461;SDS011;75865;42.672;23.360;2024-03-17T15:11:13;7.50;;;5.28;;